Time;durP1;ratioP1;P1;durP2;ratioP2;P2;SDS_P1;SDS_P2;PMS_P1;PMS_P2;Temp;Humidity;BMP_temperature;BMP_pressure;BME280_temperature;BME280_humidity;BME280_pressure;Samples;Min_cycle;Max_cycle;Signal;HPM_P1;HPM_P2
2023/09/01 00:01:50;;;;;;;0.10;0.10;;;17.50;49.40;;;;;;5051969;28;20207;-53
2023/09/01 00:04:21;;;;;;;0.00;0.00;;;17.50;49.40;;;;;;5051672;28;20222;-58
2023/09/01 00:06:51;;;;;;;0.00;0.00;;;17.50;49.40;;;;;;5051024;28;20219;-57
2023/09/01 00:09:24;;;;;;;0.00;0.00;;;17.50;49.40;;;;;;5051240;28;20253;-57
2023/09/01 00:11:54;;;;;;;0.10;0.10;;;17.60;49.50;;;;;;5051173;28;20249;-53
2023/09/01 00:14:25;;;;;;;0.10;0.10;;;17.60;49.50;;;;;;5051338;28;20195;-56
2023/09/01 00:16:55;;;;;;;0.00;0.00;;;17.60;49.50;;;;;;5051389;28;20261;-57
2023/09/01 00:19:26;;;;;;;0.10;0.10;;;17.70;49.60;;;;;;5051666;28;20253;-58
2023/09/01 00:21:57;;;;;;;0.10;0.10;;;17.70;49.60;;;;;;5051293;28;20195;-56
2023/09/01 00:24:30;;;;;;;0.10;0.10;;;17.70;49.50;;;;;;5051360;28;20249;-55
2023/09/01 00:27:01;;;;;;;0.00;0.00;;;17.70;49.40;;;;;;5051202;28;20219;-54
2023/09/01 00:29:33;;;;;;;0.08;0.08;;;17.80;49.40;;;;;;5052661;28;20199;-57
2023/09/01 00:32:03;;;;;;;0.00;0.00;;;17.80;49.40;;;;;;5055054;28;20207;-58
2023/09/01 00:34:34;;;;;;;0.10;0.10;;;17.90;49.50;;;;;;5055253;28;20192;-55
2023/09/01 00:37:05;;;;;;;0.00;0.00;;;17.90;49.50;;;;;;5055136;28;20218;-57
2023/09/01 00:39:38;;;;;;;0.00;0.00;;;17.90;49.50;;;;;;5055243;28;20207;-56
2023/09/01 00:42:08;;;;;;;0.03;0.03;;;18.00;49.50;;;;;;5055006;28;20203;-55
2023/09/01 00:44:39;;;;;;;0.00;0.00;;;18.00;49.50;;;;;;5054618;28;20230;-58
2023/09/01 00:47:11;;;;;;;0.00;0.00;;;18.00;50.20;;;;;;5045432;28;20218;-57
2023/09/01 00:49:42;;;;;;;0.00;0.00;;;18.00;49.70;;;;;;5055213;28;20562;-57
2023/09/01 00:52:13;;;;;;;0.00;0.00;;;18.10;49.70;;;;;;5055109;28;20191;-57
2023/09/01 00:54:45;;;;;;;0.00;0.00;;;18.10;49.70;;;;;;5054925;28;20230;-55
2023/09/01 00:57:16;;;;;;;0.00;0.00;;;18.10;50.20;;;;;;5054587;28;20272;-56
2023/09/01 00:59:46;;;;;;;0.00;0.00;;;18.20;49.60;;;;;;5054966;28;20218;-55
2023/09/01 01:02:17;;;;;;;0.08;0.08;;;18.20;49.60;;;;;;5055327;28;20199;-58
2023/09/01 01:04:48;;;;;;;0.00;0.00;;;18.20;49.50;;;;;;5055024;28;20197;-57
2023/09/01 01:07:25;;;;;;;0.10;0.10;;;18.30;49.50;;;;;;5054316;28;20216;-56
2023/09/01 01:10:06;;;;;;;0.10;0.10;;;18.30;49.40;;;;;;5054531;28;20199;-57
2023/09/01 01:12:49;;;;;;;0.00;0.00;;;18.30;49.30;;;;;;5055163;28;20244;-56
2023/09/01 01:15:22;;;;;;;0.00;0.00;;;18.40;49.30;;;;;;5054458;28;20219;-57
2023/09/01 01:17:53;;;;;;;0.00;0.00;;;18.40;49.40;;;;;;5054410;28;20222;-57
2023/09/01 01:20:38;;;;;;;0.00;0.00;;;18.40;49.40;;;;;;5054020;28;20196;-58
2023/09/01 01:23:17;;;;;;;0.00;0.00;;;18.50;49.40;;;;;;5052391;28;20288;-58
2023/09/01 01:25:52;;;;;;;0.00;0.00;;;18.50;49.40;;;;;;5054429;28;20252;-57
2023/09/01 01:28:24;;;;;;;0.00;0.00;;;18.50;49.40;;;;;;5054211;28;20195;-56
2023/09/01 01:30:54;;;;;;;0.00;0.00;;;18.60;49.50;;;;;;5054342;28;20295;-58
2023/09/01 01:33:46;;;;;;;0.03;0.03;;;18.60;49.40;;;;;;5051961;28;20194;-58
2023/09/01 01:36:28;;;;;;;0.00;0.00;;;18.60;49.50;;;;;;5046596;28;20229;-58
2023/09/01 01:39:05;;;;;;;0.00;0.00;;;18.70;49.40;;;;;;5053934;28;20567;-58
2023/09/01 01:41:43;;;;;;;0.00;0.00;;;18.70;49.50;;;;;;5052543;28;20207;-58
2023/09/01 01:44:15;;;;;;;0.00;0.00;;;18.80;49.50;;;;;;5053874;28;20231;-58
2023/09/01 01:46:47;;;;;;;0.03;0.03;;;18.80;49.50;;;;;;5053879;28;20223;-58
2023/09/01 01:49:18;;;;;;;0.08;0.08;;;18.80;49.40;;;;;;5053983;28;20242;-58
2023/09/01 01:51:49;;;;;;;0.10;0.10;;;18.80;49.40;;;;;;5054302;28;20282;-57
2023/09/01 01:54:21;;;;;;;0.00;0.00;;;18.90;49.40;;;;;;5053993;28;20206;-56
2023/09/01 01:56:52;;;;;;;0.10;0.10;;;18.90;49.30;;;;;;5053651;28;20231;-58
2023/09/01 01:59:22;;;;;;;0.05;0.05;;;19.00;49.40;;;;;;5053436;28;20226;-58
2023/09/01 02:01:53;;;;;;;0.00;0.00;;;19.00;49.30;;;;;;5053947;28;20210;-58
2023/09/01 02:04:24;;;;;;;0.00;0.00;;;19.00;49.30;;;;;;5053719;28;20191;-57
2023/09/01 02:06:54;;;;;;;0.08;0.08;;;19.10;49.40;;;;;;5053526;28;20564;-58
2023/09/01 02:09:27;;;;;;;0.00;0.00;;;19.10;49.40;;;;;;5053581;28;20196;-58
2023/09/01 02:11:58;;;;;;;0.00;0.00;;;19.20;49.40;;;;;;5053507;28;20199;-58
2023/09/01 02:14:28;;;;;;;0.00;0.00;;;19.20;49.40;;;;;;5053589;28;20202;-57
2023/09/01 02:17:01;;;;;;;0.00;0.00;;;19.20;49.40;;;;;;5053242;28;20234;-57
2023/09/01 02:19:32;;;;;;;0.00;0.00;;;19.20;49.40;;;;;;5053152;28;20207;-57
2023/09/01 02:22:05;;;;;;;0.00;0.00;;;19.30;49.50;;;;;;5052924;28;20414;-57
2023/09/01 02:24:38;;;;;;;0.00;0.00;;;19.30;49.50;;;;;;5053238;28;20203;-58
2023/09/01 02:27:08;;;;;;;0.10;0.10;;;19.40;49.50;;;;;;5053283;28;20227;-58
2023/09/01 02:29:40;;;;;;;0.00;0.00;;;19.40;49.50;;;;;;5053421;28;20195;-57
2023/09/01 02:32:11;;;;;;;0.05;0.05;;;19.40;49.20;;;;;;5052987;28;20206;-58
2023/09/01 02:34:42;;;;;;;0.00;0.00;;;19.50;48.70;;;;;;5047886;28;20632;-58
2023/09/01 02:37:12;;;;;;;0.00;0.00;;;19.60;48.60;;;;;;5033094;28;20236;-58
2023/09/01 02:39:45;;;;;;;0.00;0.00;;;19.60;48.80;;;;;;5051949;28;20277;-57
2023/09/01 02:42:15;;;;;;;0.00;0.00;;;19.70;48.90;;;;;;5052959;28;20203;-58
2023/09/01 02:44:46;;;;;;;0.10;0.10;;;19.70;49.00;;;;;;5052758;28;20662;-57
2023/09/01 02:47:16;;;;;;;0.00;0.00;;;19.80;49.10;;;;;;5051533;28;20693;-58
2023/09/01 02:49:47;;;;;;;0.00;0.00;;;19.80;49.20;;;;;;5052622;28;20655;-58
2023/09/01 02:52:18;;;;;;;0.00;0.00;;;19.90;49.20;;;;;;5052496;28;20199;-58
2023/09/01 02:54:50;;;;;;;0.00;0.00;;;19.90;49.20;;;;;;5052762;28;20195;-58
2023/09/01 02:57:21;;;;;;;0.08;0.08;;;20.00;49.30;;;;;;5052489;28;20325;-57
2023/09/01 02:59:52;;;;;;;0.10;0.10;;;20.00;49.30;;;;;;5052546;28;20199;-58
2023/09/01 03:02:23;;;;;;;0.00;0.00;;;20.10;49.30;;;;;;5052473;28;20253;-58
2023/09/01 03:04:55;;;;;;;0.03;0.03;;;20.10;49.40;;;;;;5052664;28;20208;-58
2023/09/01 03:07:27;;;;;;;0.00;0.00;;;20.10;49.40;;;;;;5052483;28;20215;-58
2023/09/01 03:09:59;;;;;;;0.00;0.00;;;20.20;49.50;;;;;;5052289;28;20248;-58
2023/09/01 03:12:30;;;;;;;0.00;0.00;;;20.20;49.50;;;;;;5052217;28;20675;-58
2023/09/01 03:15:00;;;;;;;0.00;0.00;;;20.20;49.50;;;;;;5051870;28;20191;-58
2023/09/01 03:17:31;;;;;;;0.00;0.00;;;20.30;49.50;;;;;;5051573;28;20231;-59
2023/09/01 03:20:03;;;;;;;0.08;0.08;;;20.30;49.50;;;;;;5052574;28;20208;-58
2023/09/01 03:22:34;;;;;;;0.10;0.10;;;20.40;49.60;;;;;;5051572;28;20202;-57
2023/09/01 03:25:09;;;;;;;0.00;0.00;;;20.40;49.50;;;;;;5031870;28;20654;-57
2023/09/01 03:27:40;;;;;;;0.00;0.00;;;20.40;49.50;;;;;;5032365;28;20231;-58
2023/09/01 03:30:12;;;;;;;0.00;0.00;;;20.50;49.60;;;;;;5032583;28;20204;-58
2023/09/01 03:32:45;;;;;;;0.10;0.10;;;20.50;49.60;;;;;;5052132;28;20202;-57
2023/09/01 03:35:16;;;;;;;0.00;0.00;;;20.60;49.60;;;;;;5052284;28;20555;-58
2023/09/01 03:37:48;;;;;;;0.00;0.00;;;20.60;49.60;;;;;;5051669;28;20227;-58
2023/09/01 03:40:21;;;;;;;0.10;0.10;;;20.60;49.50;;;;;;5050966;28;20235;-58
2023/09/01 03:42:51;;;;;;;0.00;0.00;;;20.70;49.50;;;;;;5031637;28;20655;-58
2023/09/01 03:45:22;;;;;;;0.00;0.00;;;20.70;49.50;;;;;;5032265;28;20211;-57
2023/09/01 03:47:53;;;;;;;0.00;0.00;;;20.70;49.40;;;;;;5031410;28;20224;-58
2023/09/01 03:50:23;;;;;;;0.00;0.00;;;20.70;49.50;;;;;;5031820;28;20208;-58
2023/09/01 03:52:54;;;;;;;0.00;0.00;;;20.80;49.50;;;;;;5051070;28;20271;-58
2023/09/01 03:55:26;;;;;;;0.10;0.10;;;20.80;49.50;;;;;;5051619;28;20548;-58
2023/09/01 03:57:57;;;;;;;0.00;0.00;;;20.80;49.40;;;;;;5051210;28;20281;-58
2023/09/01 04:00:28;;;;;;;0.00;0.00;;;20.90;49.40;;;;;;5051902;28;20227;-58
2023/09/01 04:02:58;;;;;;;0.00;0.00;;;20.90;49.40;;;;;;5051158;28;20612;-58
2023/09/01 04:05:30;;;;;;;0.10;0.10;;;20.90;49.30;;;;;;5050826;28;20202;-58
2023/09/01 04:08:01;;;;;;;0.00;0.00;;;21.00;49.40;;;;;;5051452;28;20215;-58
2023/09/01 04:10:33;;;;;;;0.00;0.00;;;21.00;49.40;;;;;;5051931;28;20274;-58
2023/09/01 04:13:04;;;;;;;0.10;0.10;;;21.10;49.40;;;;;;5051442;28;20669;-58
2023/09/01 04:15:35;;;;;;;0.10;0.10;;;21.10;49.40;;;;;;5051554;28;20187;-58
2023/09/01 04:18:05;;;;;;;0.05;0.05;;;21.10;49.30;;;;;;5051276;28;20228;-59
2023/09/01 04:20:36;;;;;;;0.00;0.00;;;21.10;49.30;;;;;;5051255;28;20596;-58
2023/09/01 04:23:07;;;;;;;0.10;0.10;;;21.20;49.30;;;;;;5051698;28;20210;-58
2023/09/01 04:25:40;;;;;;;0.10;0.10;;;21.20;49.30;;;;;;5051352;28;20274;-58
2023/09/01 04:28:10;;;;;;;0.00;0.00;;;21.20;49.30;;;;;;5051408;28;20227;-58
2023/09/01 04:30:41;;;;;;;0.00;0.00;;;21.20;49.30;;;;;;5051487;28;20206;-58
2023/09/01 04:33:12;;;;;;;0.10;0.10;;;21.30;49.80;;;;;;5051369;28;20203;-58
2023/09/01 04:35:43;;;;;;;0.00;0.00;;;21.30;49.20;;;;;;5051651;28;20198;-58
2023/09/01 04:38:13;;;;;;;0.08;0.08;;;21.30;49.20;;;;;;5050818;28;20242;-58
2023/09/01 04:40:46;;;;;;;0.10;0.10;;;21.30;49.20;;;;;;5050957;28;20207;-58
2023/09/01 04:43:17;;;;;;;0.00;0.00;;;21.30;49.20;;;;;;5051255;28;20203;-58
2023/09/01 04:45:49;;;;;;;0.00;0.00;;;21.40;49.20;;;;;;5048584;28;20196;-59
2023/09/01 04:48:20;;;;;;;0.00;0.00;;;21.40;49.20;;;;;;5051041;28;20247;-58
2023/09/01 04:50:51;;;;;;;0.00;0.00;;;21.40;49.20;;;;;;5050841;28;20200;-58
2023/09/01 04:53:21;;;;;;;0.00;0.00;;;21.40;49.20;;;;;;5050755;28;20199;-58
2023/09/01 04:55:54;;;;;;;0.10;0.10;;;21.50;49.20;;;;;;5051012;28;20607;-59
2023/09/01 04:58:25;;;;;;;0.00;0.00;;;21.50;49.20;;;;;;5051076;28;20227;-58
2023/09/01 05:00:56;;;;;;;0.00;0.00;;;21.50;49.80;;;;;;5051135;28;20207;-58
2023/09/01 05:03:27;;;;;;;0.00;0.00;;;21.50;49.20;;;;;;5051068;28;20234;-58
2023/09/01 05:06:00;;;;;;;0.00;0.00;;;21.50;49.30;;;;;;5050934;28;20668;-58
2023/09/01 05:08:42;;;;;;;0.10;0.10;;;21.50;49.30;;;;;;5050936;28;20195;-58
2023/09/01 05:11:15;;;;;;;0.10;0.10;;;21.50;49.20;;;;;;5051035;28;20351;-58
2023/09/01 05:13:45;;;;;;;0.00;0.00;;;21.50;49.20;;;;;;5051095;28;20655;-58
2023/09/01 05:16:16;;;;;;;0.00;0.00;;;21.60;49.30;;;;;;5052118;28;20223;-58
2023/09/01 05:18:47;;;;;;;0.10;0.10;;;21.60;49.30;;;;;;5053936;28;20200;-58
2023/09/01 05:21:17;;;;;;;0.00;0.00;;;21.60;49.30;;;;;;5053996;28;20199;-58
2023/09/01 05:23:48;;;;;;;0.10;0.10;;;21.60;49.30;;;;;;5053377;28;20678;-59
2023/09/01 05:26:20;;;;;;;0.10;0.10;;;21.60;49.30;;;;;;5053963;28;20223;-59
2023/09/01 05:28:51;;;;;;;0.00;0.00;;;21.60;49.30;;;;;;5054202;28;20216;-58
2023/09/01 05:31:21;;;;;;;0.00;0.00;;;21.60;49.30;;;;;;5053685;28;20199;-58
2023/09/01 05:33:52;;;;;;;0.10;0.10;;;21.60;49.30;;;;;;5054195;28;20196;-58
2023/09/01 05:36:23;;;;;;;0.03;0.03;;;21.60;49.30;;;;;;5053739;28;20219;-58
2023/09/01 05:38:53;;;;;;;0.00;0.00;;;21.60;49.20;;;;;;5053977;28;20226;-58
2023/09/01 05:41:26;;;;;;;0.00;0.00;;;21.60;49.20;;;;;;5053221;28;20210;-58
2023/09/01 05:43:56;;;;;;;0.00;0.00;;;21.60;49.10;;;;;;5053635;28;20199;-58
2023/09/01 05:46:27;;;;;;;0.10;0.10;;;21.60;49.10;;;;;;5053346;28;20228;-58
2023/09/01 05:48:58;;;;;;;0.03;0.03;;;21.60;49.10;;;;;;5053807;28;20222;-58
2023/09/01 05:51:28;;;;;;;0.00;0.00;;;21.60;49.10;;;;;;5053803;28;20207;-58
2023/09/01 05:53:59;;;;;;;0.00;0.00;;;21.60;49.10;;;;;;5053885;28;20678;-58
2023/09/01 05:56:31;;;;;;;0.00;0.00;;;21.50;49.10;;;;;;5053192;28;20212;-58
2023/09/01 05:59:03;;;;;;;0.00;0.00;;;21.50;49.20;;;;;;5053812;28;20287;-59
2023/09/01 06:01:36;;;;;;;0.00;0.00;;;21.60;49.30;;;;;;5053414;28;20204;-58
2023/09/01 06:04:07;;;;;;;0.00;0.00;;;21.50;49.20;;;;;;5053343;28;20282;-58
2023/09/01 06:06:37;;;;;;;0.00;0.00;;;21.50;49.10;;;;;;5053041;28;20215;-58
2023/09/01 06:09:08;;;;;;;0.03;0.03;;;21.50;49.00;;;;;;5053040;28;20203;-59
2023/09/01 06:11:41;;;;;;;0.00;0.00;;;21.50;48.90;;;;;;5053178;28;20207;-59
2023/09/01 06:14:12;;;;;;;0.00;0.00;;;21.50;48.90;;;;;;5053409;28;20585;-58
2023/09/01 06:16:44;;;;;;;0.00;0.00;;;21.50;48.80;;;;;;5052500;28;20223;-58
2023/09/01 06:19:15;;;;;;;0.10;0.10;;;21.50;48.80;;;;;;5053355;28;20199;-58
2023/09/01 06:21:45;;;;;;;0.00;0.00;;;21.40;48.70;;;;;;5053209;28;20199;-58
2023/09/01 06:24:16;;;;;;;0.05;0.05;;;21.40;48.70;;;;;;5053234;28;20195;-59
2023/09/01 06:26:48;;;;;;;0.00;0.00;;;21.40;48.70;;;;;;5052053;28;20223;-59
2023/09/01 06:29:19;;;;;;;0.00;0.00;;;21.40;48.70;;;;;;5053032;28;20203;-59
2023/09/01 06:31:49;;;;;;;0.00;0.00;;;21.40;48.70;;;;;;5052497;28;20207;-59
2023/09/01 06:34:20;;;;;;;0.00;0.00;;;21.30;48.70;;;;;;5053331;28;20202;-58
2023/09/01 06:36:51;;;;;;;0.00;0.00;;;21.30;48.70;;;;;;5052541;28;20221;-58
2023/09/01 06:39:21;;;;;;;0.10;0.10;;;21.30;48.80;;;;;;5052592;28;20206;-59
2023/09/01 06:41:54;;;;;;;0.00;0.00;;;21.30;48.70;;;;;;5052520;28;20206;-58
2023/09/01 06:44:25;;;;;;;0.00;0.00;;;21.20;48.70;;;;;;5052062;28;20246;-58
2023/09/01 06:46:55;;;;;;;0.00;0.00;;;21.20;48.70;;;;;;5051777;28;20257;-59
2023/09/01 06:49:26;;;;;;;0.10;0.10;;;21.20;48.70;;;;;;5052150;28;20184;-58
2023/09/01 06:51:58;;;;;;;0.00;0.00;;;21.20;48.70;;;;;;5052503;28;20206;-58
2023/09/01 06:54:29;;;;;;;0.00;0.00;;;21.20;48.70;;;;;;5052696;28;20225;-58
2023/09/01 06:57:01;;;;;;;0.05;0.05;;;21.10;48.70;;;;;;5052746;28;20706;-59
2023/09/01 06:59:32;;;;;;;0.08;0.08;;;21.10;48.70;;;;;;5052288;28;20662;-58
2023/09/01 07:02:02;;;;;;;0.00;0.00;;;21.10;48.70;;;;;;5052487;28;20207;-59
2023/09/01 07:04:33;;;;;;;0.05;0.05;;;21.00;48.70;;;;;;5052248;28;20199;-58
2023/09/01 07:07:04;;;;;;;0.00;0.00;;;21.00;48.70;;;;;;5052405;28;20223;-58
2023/09/01 07:09:35;;;;;;;0.00;0.00;;;21.00;48.70;;;;;;5052456;28;20634;-59
2023/09/01 07:12:08;;;;;;;0.05;0.05;;;20.90;48.70;;;;;;5052430;28;20203;-58
2023/09/01 07:14:38;;;;;;;0.03;0.03;;;20.90;48.70;;;;;;5051801;28;20199;-58
2023/09/01 07:17:09;;;;;;;0.00;0.00;;;20.90;48.80;;;;;;5051787;28;20231;-58
2023/09/01 07:19:39;;;;;;;0.00;0.00;;;20.90;48.80;;;;;;5051790;28;20598;-58
2023/09/01 07:22:10;;;;;;;0.00;0.00;;;20.80;48.80;;;;;;5052374;28;20199;-57
2023/09/01 07:24:41;;;;;;;0.00;0.00;;;20.80;48.80;;;;;;5052465;28;20241;-58
2023/09/01 07:27:14;;;;;;;0.00;0.00;;;20.80;48.80;;;;;;5051535;28;20720;-59
2023/09/01 07:29:48;;;;;;;0.00;0.00;;;20.80;48.80;;;;;;5051043;28;20207;-56
2023/09/01 07:32:19;;;;;;;0.03;0.03;;;20.80;48.80;;;;;;5049223;28;20206;-57
2023/09/01 07:34:50;;;;;;;0.00;0.00;;;20.70;48.80;;;;;;5051642;28;20647;-58
2023/09/01 07:37:21;;;;;;;0.00;0.00;;;20.70;48.80;;;;;;5051963;28;20231;-57
2023/09/01 07:39:52;;;;;;;0.00;0.00;;;20.70;48.80;;;;;;5051896;28;20654;-58
2023/09/01 07:42:24;;;;;;;0.10;0.10;;;20.60;48.80;;;;;;5051732;28;20206;-56
2023/09/01 07:44:55;;;;;;;0.10;0.10;;;20.60;48.80;;;;;;5051225;28;20200;-58
2023/09/01 07:47:26;;;;;;;0.00;0.00;;;20.60;48.90;;;;;;5051950;28;20219;-58
2023/09/01 07:49:56;;;;;;;0.10;0.10;;;20.60;48.80;;;;;;5051967;28;20191;-55
2023/09/01 07:52:28;;;;;;;0.00;0.00;;;20.50;48.80;;;;;;5052243;28;20568;-58
2023/09/01 07:54:59;;;;;;;0.10;0.10;;;20.50;48.90;;;;;;5051675;28;20206;-57
2023/09/01 07:57:31;;;;;;;0.05;0.05;;;20.50;48.90;;;;;;5051575;28;20311;-58
2023/09/01 08:00:05;;;;;;;0.00;0.00;;;20.40;48.90;;;;;;5051491;28;20218;-58
2023/09/01 08:02:36;;;;;;;0.00;0.00;;;20.40;48.90;;;;;;5031978;28;20953;-59
2023/09/01 08:05:07;;;;;;;0.10;0.10;;;20.40;48.90;;;;;;5031801;28;20239;-58
2023/09/01 08:07:38;;;;;;;0.10;0.10;;;20.40;49.50;;;;;;5031610;28;20224;-59
2023/09/01 08:10:10;;;;;;;0.10;0.10;;;20.40;48.80;;;;;;5031576;28;20552;-56
2023/09/01 08:12:43;;;;;;;0.10;0.10;;;20.30;48.80;;;;;;5031662;28;20714;-58
2023/09/01 08:15:14;;;;;;;0.00;0.00;;;20.30;48.80;;;;;;5030801;28;20547;-59
2023/09/01 08:17:44;;;;;;;0.00;0.00;;;20.30;48.70;;;;;;5031106;28;20235;-58
2023/09/01 08:20:15;;;;;;;0.10;0.10;;;20.30;48.70;;;;;;5031256;28;20211;-57
2023/09/01 08:22:46;;;;;;;0.10;0.10;;;20.20;48.70;;;;;;5031125;28;20200;-57
2023/09/01 08:25:16;;;;;;;0.00;0.00;;;20.30;48.70;;;;;;5031481;28;20203;-52
2023/09/01 08:27:49;;;;;;;0.10;0.10;;;20.20;48.70;;;;;;5031612;28;20223;-58
2023/09/01 08:30:19;;;;;;;0.10;0.10;;;20.20;48.70;;;;;;5032728;28;20195;-58
2023/09/01 08:32:50;;;;;;;0.10;0.10;;;20.20;48.70;;;;;;5050995;28;20697;-58
2023/09/01 08:35:21;;;;;;;0.00;0.00;;;20.10;48.70;;;;;;5051133;28;20206;-59
2023/09/01 08:37:51;;;;;;;0.00;0.00;;;20.10;48.70;;;;;;5051255;28;20219;-58
2023/09/01 08:40:23;;;;;;;0.10;0.10;;;20.10;48.70;;;;;;5051142;28;20195;-56
2023/09/01 08:42:56;;;;;;;0.00;0.00;;;20.10;48.70;;;;;;5051269;28;20670;-56
2023/09/01 08:45:28;;;;;;;0.00;0.00;;;20.00;48.70;;;;;;5050890;28;20239;-58
2023/09/01 08:47:59;;;;;;;0.10;0.10;;;20.00;48.70;;;;;;5050963;28;20223;-56
2023/09/01 08:50:30;;;;;;;0.00;0.00;;;20.00;48.70;;;;;;5051291;28;20196;-57
2023/09/01 08:53:02;;;;;;;0.10;0.10;;;20.00;48.70;;;;;;5054758;28;20203;-52
2023/09/01 08:55:33;;;;;;;0.00;0.00;;;19.90;48.60;;;;;;5054673;28;20223;-54
2023/09/01 08:58:05;;;;;;;0.10;0.10;;;19.90;48.60;;;;;;5054056;28;20243;-55
2023/09/01 09:00:39;;;;;;;0.00;0.00;;;19.90;48.60;;;;;;5054879;28;20226;-59
2023/09/01 09:03:12;;;;;;;0.10;0.10;;;19.90;48.60;;;;;;5055331;28;20203;-56
2023/09/01 09:05:43;;;;;;;0.10;0.10;;;19.90;48.60;;;;;;5054863;28;20199;-58
2023/09/01 09:08:15;;;;;;;0.00;0.00;;;19.80;48.60;;;;;;5054399;28;20223;-56
2023/09/01 09:10:48;;;;;;;0.10;0.10;;;19.80;48.60;;;;;;5054705;28;20196;-52
2023/09/01 09:13:27;;;;;;;0.00;0.00;;;19.80;48.70;;;;;;5054270;28;20241;-56
2023/09/01 09:16:12;;;;;;;0.00;0.00;;;19.70;48.60;;;;;;5054645;28;20192;-56
2023/09/01 09:18:44;;;;;;;0.08;0.08;;;19.70;48.70;;;;;;5054255;28;20231;-57
2023/09/01 09:21:28;;;;;;;0.00;0.00;;;19.70;48.70;;;;;;5054498;28;20191;-56
2023/09/01 09:23:59;;;;;;;0.10;0.10;;;19.60;48.70;;;;;;5054751;28;20573;-56
2023/09/01 09:26:30;;;;;;;0.00;0.00;;;19.60;48.70;;;;;;5054485;28;20220;-57
2023/09/01 09:29:08;;;;;;;0.03;0.03;;;19.60;48.70;;;;;;5053948;28;20195;-59
2023/09/01 09:31:40;;;;;;;0.00;0.00;;;19.60;48.70;;;;;;5053770;28;20218;-54
2023/09/01 09:34:22;;;;;;;0.00;0.00;;;19.60;48.70;;;;;;5049947;28;20615;-55
2023/09/01 09:36:53;;;;;;;0.00;0.00;;;19.50;48.70;;;;;;5053582;28;20226;-53
2023/09/01 09:39:30;;;;;;;0.10;0.10;;;19.60;48.70;;;;;;5050907;28;20725;-53
2023/09/01 09:42:01;;;;;;;0.10;0.10;;;19.50;48.70;;;;;;5053724;28;20227;-58
2023/09/01 09:44:34;;;;;;;0.00;0.00;;;19.50;48.70;;;;;;5053671;28;20202;-53
2023/09/01 09:47:10;;;;;;;0.10;0.10;;;19.50;48.70;;;;;;5054114;28;20368;-57
2023/09/01 09:49:41;;;;;;;0.10;0.10;;;19.40;48.70;;;;;;5053742;28;20286;-55
2023/09/01 09:52:12;;;;;;;0.00;0.00;;;19.40;48.70;;;;;;5053889;28;20195;-59
2023/09/01 09:54:46;;;;;;;0.00;0.00;;;19.40;48.70;;;;;;5053606;28;20199;-53
2023/09/01 09:57:21;;;;;;;0.00;0.00;;;19.40;48.70;;;;;;5053281;28;20591;-49
2023/09/01 10:00:00;;;;;;;0.00;0.00;;;19.40;48.70;;;;;;5052856;28;20249;-52
2023/09/01 10:02:38;;;;;;;0.00;0.00;;;19.30;48.70;;;;;;5053051;28;20474;-56
2023/09/01 10:05:11;;;;;;;0.10;0.10;;;19.30;48.70;;;;;;5053538;28;20211;-55
2023/09/01 10:07:42;;;;;;;0.10;0.10;;;19.30;48.80;;;;;;5053594;28;20215;-56
2023/09/01 10:10:14;;;;;;;0.10;0.10;;;19.30;48.80;;;;;;5053644;28;20199;-59
2023/09/01 10:12:45;;;;;;;0.00;0.00;;;19.20;48.70;;;;;;5053555;28;20199;-52
2023/09/01 10:15:20;;;;;;;0.10;0.10;;;19.20;48.70;;;;;;5053987;28;20204;-53
2023/09/01 10:17:51;;;;;;;0.10;0.10;;;19.20;48.70;;;;;;5053185;28;20242;-56
2023/09/01 10:20:22;;;;;;;0.10;0.10;;;19.20;48.70;;;;;;5053003;28;20203;-59
2023/09/01 10:22:52;;;;;;;0.00;0.00;;;19.10;48.70;;;;;;5053365;28;20199;-52
2023/09/01 10:25:24;;;;;;;0.00;0.00;;;19.20;48.70;;;;;;5053335;28;20199;-58
2023/09/01 10:28:11;;;;;;;0.10;0.10;;;19.10;48.70;;;;;;5052841;28;20298;-56
2023/09/01 10:30:44;;;;;;;0.00;0.00;;;19.10;48.70;;;;;;5053566;28;20234;-56
2023/09/01 10:33:17;;;;;;;0.08;0.08;;;19.00;48.60;;;;;;5053293;28;20200;-59
2023/09/01 10:35:50;;;;;;;0.00;0.00;;;19.00;48.70;;;;;;5052838;28;20196;-57
2023/09/01 10:38:22;;;;;;;0.00;0.00;;;19.00;48.70;;;;;;5052738;28;20591;-58
2023/09/01 10:40:54;;;;;;;0.00;0.00;;;19.00;48.70;;;;;;5053001;28;20191;-56
2023/09/01 10:43:57;;;;;;;0.00;0.00;;;19.00;48.70;;;;;;5052672;28;20195;-53
2023/09/01 10:46:30;;;;;;;0.10;0.10;;;18.90;48.70;;;;;;5048889;28;20301;-58
2023/09/01 10:49:01;;;;;;;0.00;0.00;;;18.90;48.70;;;;;;5052562;28;20222;-55
2023/09/01 10:51:33;;;;;;;0.10;0.10;;;18.90;48.70;;;;;;5052586;28;20195;-58
2023/09/01 10:54:24;;;;;;;0.10;0.10;;;18.80;48.70;;;;;;5052336;28;20195;-59
2023/09/01 10:57:01;;;;;;;0.05;0.05;;;18.80;48.70;;;;;;5032174;28;20707;-55
2023/09/01 10:59:32;;;;;;;0.00;0.00;;;18.80;48.70;;;;;;5032325;28;20223;-53
2023/09/01 11:02:20;;;;;;;0.00;0.00;;;18.80;48.70;;;;;;5033106;28;20196;-59
2023/09/01 11:04:51;;;;;;;0.03;0.03;;;18.80;48.70;;;;;;5039068;28;20203;-57
2023/09/01 11:07:22;;;;;;;0.00;0.00;;;18.70;48.70;;;;;;5052603;28;20234;-57
2023/09/01 11:09:59;;;;;;;0.10;0.10;;;18.70;48.70;;;;;;5052379;28;20211;-54
2023/09/01 11:12:36;;;;;;;0.10;0.10;;;18.70;48.70;;;;;;5051662;28;20206;-54
2023/09/01 11:15:08;;;;;;;0.10;0.10;;;18.60;48.70;;;;;;5052007;28;20206;-57
2023/09/01 11:17:49;;;;;;;0.10;0.10;;;18.60;48.70;;;;;;5052391;28;20262;-60
2023/09/01 11:20:22;;;;;;;0.10;0.10;;;18.60;48.70;;;;;;5052050;28;20230;-56
2023/09/01 11:22:54;;;;;;;0.00;0.00;;;18.60;48.70;;;;;;5052179;28;20540;-56
2023/09/01 11:25:27;;;;;;;0.10;0.10;;;18.50;48.70;;;;;;5052332;28;20196;-54
2023/09/01 11:27:57;;;;;;;0.10;0.10;;;18.50;48.70;;;;;;5052141;28;20223;-56
2023/09/01 11:30:28;;;;;;;0.00;0.00;;;18.50;48.70;;;;;;5052103;28;20196;-56
2023/09/01 11:33:11;;;;;;;0.00;0.00;;;18.50;48.70;;;;;;5051687;28;20199;-56
2023/09/01 11:35:42;;;;;;;0.10;0.10;;;18.50;48.70;;;;;;5050371;28;20203;-58
2023/09/01 11:38:20;;;;;;;0.10;0.10;;;18.40;48.90;;;;;;5050734;28;20694;-52
2023/09/01 11:40:53;;;;;;;0.00;0.00;;;18.40;49.20;;;;;;5051246;28;20226;-57
2023/09/01 11:43:24;;;;;;;0.00;0.00;;;18.40;49.10;;;;;;5052051;28;20191;-56
2023/09/01 11:45:54;;;;;;;0.00;0.00;;;18.40;49.10;;;;;;5051847;28;20188;-57
2023/09/01 11:48:27;;;;;;;0.05;0.05;;;18.40;49.10;;;;;;5051357;28;20203;-52
2023/09/01 11:50:59;;;;;;;0.10;0.10;;;18.40;49.20;;;;;;5050975;28;20210;-55
2023/09/01 11:53:32;;;;;;;0.10;0.10;;;18.40;49.20;;;;;;5051908;28;20192;-56
2023/09/01 11:56:03;;;;;;;0.00;0.00;;;18.40;49.20;;;;;;5051963;28;20201;-55
2023/09/01 11:58:48;;;;;;;0.05;0.05;;;18.30;49.20;;;;;;5051681;28;20199;-57
2023/09/01 12:01:20;;;;;;;0.10;0.10;;;18.30;49.30;;;;;;5052235;28;20857;-56
2023/09/01 12:03:53;;;;;;;0.10;0.10;;;18.30;49.30;;;;;;5051784;28;20195;-53
2023/09/01 12:06:25;;;;;;;0.10;0.10;;;18.30;49.40;;;;;;5051367;28;20705;-57
2023/09/01 12:09:10;;;;;;;0.03;0.03;;;18.30;49.40;;;;;;5052067;28;20218;-57
2023/09/01 12:11:55;;;;;;;0.03;0.03;;;18.30;49.50;;;;;;5051517;28;20198;-57
2023/09/01 12:14:28;;;;;;;0.10;0.10;;;18.20;50.00;;;;;;5051700;28;20202;-58
2023/09/01 12:16:59;;;;;;;0.00;0.00;;;18.20;49.40;;;;;;5051280;28;20223;-56
2023/09/01 12:19:47;;;;;;;0.05;0.05;;;18.20;49.40;;;;;;5051006;28;20630;-55
2023/09/01 12:22:17;;;;;;;0.05;0.05;;;18.20;49.40;;;;;;5051229;28;20233;-56
2023/09/01 12:24:55;;;;;;;0.10;0.10;;;18.10;49.40;;;;;;5051219;28;20678;-53
2023/09/01 12:27:26;;;;;;;0.00;0.00;;;18.10;49.40;;;;;;5055203;28;20258;-58
2023/09/01 12:29:57;;;;;;;0.10;0.10;;;18.10;49.40;;;;;;5055038;28;20286;-56
2023/09/01 12:32:30;;;;;;;0.00;0.00;;;18.10;49.50;;;;;;5055494;28;20213;-56
2023/09/01 12:35:03;;;;;;;0.10;0.10;;;18.00;49.50;;;;;;5054785;28;20654;-56
2023/09/01 12:37:33;;;;;;;0.05;0.05;;;18.00;49.50;;;;;;5055067;28;20585;-53
2023/09/01 12:40:05;;;;;;;0.10;0.10;;;18.00;49.60;;;;;;5054840;28;20227;-51
2023/09/01 12:42:36;;;;;;;0.10;0.10;;;18.00;49.70;;;;;;5055199;28;20254;-60
2023/09/01 12:45:07;;;;;;;0.10;0.10;;;17.90;49.70;;;;;;5055275;28;20204;-56
2023/09/01 12:47:38;;;;;;;0.00;0.00;;;17.90;49.70;;;;;;5055220;28;20238;-56
2023/09/01 12:50:11;;;;;;;0.10;0.10;;;17.90;49.70;;;;;;5054159;28;20207;-54
2023/09/01 12:52:42;;;;;;;0.00;0.00;;;17.90;49.70;;;;;;5055205;28;20546;-58
2023/09/01 12:55:12;;;;;;;0.03;0.03;;;17.90;49.70;;;;;;5054807;28;20561;-53
2023/09/01 12:57:43;;;;;;;0.10;0.10;;;17.80;49.60;;;;;;5054475;28;20722;-59
2023/09/01 13:00:15;;;;;;;0.10;0.10;;;17.80;49.60;;;;;;5054121;28;20227;-58
2023/09/01 13:02:45;;;;;;;0.10;0.10;;;17.80;49.60;;;;;;5055361;28;20196;-54
2023/09/01 13:05:19;;;;;;;0.03;0.03;;;17.80;49.60;;;;;;5054565;28;20635;-59
2023/09/01 13:07:50;;;;;;;0.10;0.10;;;17.70;49.60;;;;;;5055019;28;20227;-54
2023/09/01 13:10:22;;;;;;;0.10;0.10;;;17.70;49.50;;;;;;5054868;28;20195;-58
2023/09/01 13:12:52;;;;;;;0.10;0.10;;;17.70;49.60;;;;;;5054899;28;20199;-59
2023/09/01 13:15:23;;;;;;;0.00;0.00;;;17.70;49.60;;;;;;5054711;28;20196;-57